Time;durP1;ratioP1;P1;durP2;ratioP2;P2;SDS_P1;SDS_P2;PMS_P1;PMS_P2;Temp;Humidity;BMP_temperature;BMP_pressure;BME280_temperature;BME280_humidity;BME280_pressure;Samples;Min_cycle;Max_cycle;Signal;HPM_P1;HPM_P2
2023/09/11 00:02:22;;;;;;;9.90;6.97;;;19.50;99.90;;;;;;5015016;28;20140;-54
2023/09/11 00:04:47;;;;;;;9.85;6.65;;;19.50;99.90;;;;;;5014981;28;20037;-55
2023/09/11 00:07:14;;;;;;;11.25;7.30;;;19.50;99.90;;;;;;5033635;28;20480;-52
2023/09/11 00:09:40;;;;;;;10.25;7.03;;;19.50;99.90;;;;;;5014707;28;20060;-51
2023/09/11 00:12:06;;;;;;;11.98;7.10;;;19.50;99.90;;;;;;5033278;28;20026;-52
2023/09/11 00:14:32;;;;;;;9.93;6.85;;;19.50;99.90;;;;;;4966157;28;20033;-56
2023/09/11 00:16:57;;;;;;;6.95;6.25;;;19.60;99.90;;;;;;5015063;28;20046;-56
2023/09/11 00:19:23;;;;;;;11.30;7.57;;;19.60;99.90;;;;;;5036865;28;20037;-55
2023/09/11 00:21:49;;;;;;;10.25;7.55;;;19.60;99.90;;;;;;5035472;28;20048;-53
2023/09/11 00:24:14;;;;;;;10.30;7.30;;;19.70;99.90;;;;;;5037242;28;20495;-50
2023/09/11 00:26:40;;;;;;;7.93;7.13;;;19.70;99.90;;;;;;5018604;28;20049;-53
2023/09/11 00:29:06;;;;;;;10.25;7.22;;;19.70;99.90;;;;;;5018616;28;20531;-54
2023/09/11 00:31:31;;;;;;;7.68;6.88;;;19.70;99.90;;;;;;5036919;28;20030;-53
2023/09/11 00:33:57;;;;;;;9.98;7.10;;;19.70;99.90;;;;;;5018817;28;20112;-53
2023/09/11 00:36:23;;;;;;;11.60;6.97;;;19.70;99.90;;;;;;5018916;28;20029;-55
2023/09/11 00:38:50;;;;;;;9.88;7.00;;;19.70;99.90;;;;;;5035096;28;20099;-53
2023/09/11 00:41:16;;;;;;;10.13;6.70;;;19.70;99.90;;;;;;5018789;28;20045;-54
2023/09/11 00:43:42;;;;;;;12.55;7.28;;;19.70;99.90;;;;;;5036802;28;20396;-53
2023/09/11 00:46:08;;;;;;;10.90;7.03;;;19.70;99.90;;;;;;5034947;28;20120;-52
2023/09/11 00:48:34;;;;;;;10.48;6.88;;;19.70;99.90;;;;;;5036654;28;20026;-52
2023/09/11 00:51:00;;;;;;;16.90;7.20;;;19.70;99.90;;;;;;5018515;28;20515;-54
2023/09/11 00:53:26;;;;;;;9.82;6.47;;;19.70;99.90;;;;;;5036686;28;20228;-53
2023/09/11 00:55:52;;;;;;;7.85;7.00;;;19.60;99.90;;;;;;5036578;28;20029;-52
2023/09/11 00:58:18;;;;;;;9.48;6.85;;;19.60;99.90;;;;;;5036862;28;20079;-53
2023/09/11 01:00:48;;;;;;;11.38;6.57;;;19.60;99.90;;;;;;5034610;28;20124;-56
2023/09/11 01:03:15;;;;;;;10.88;6.93;;;19.60;99.90;;;;;;5036770;28;20029;-55
2023/09/11 01:05:42;;;;;;;8.88;7.50;;;19.60;99.90;;;;;;5036414;28;20026;-52
2023/09/11 01:08:08;;;;;;;10.63;7.97;;;19.50;99.90;;;;;;5036187;28;20041;-55
2023/09/11 01:10:35;;;;;;;7.47;6.60;;;19.50;99.90;;;;;;5036474;28;20022;-56
2023/09/11 01:13:02;;;;;;;11.10;6.65;;;19.50;99.90;;;;;;5036593;28;20109;-55
2023/09/11 01:15:38;;;;;;;9.70;7.03;;;19.40;99.90;;;;;;5036225;28;20112;-51
2023/09/11 01:18:24;;;;;;;7.95;7.15;;;19.20;99.90;;;;;;5036323;28;20030;-52
2023/09/11 01:21:24;;;;;;;9.63;6.88;;;18.90;99.90;;;;;;5036303;28;20030;-55
2023/09/11 01:24:27;;;;;;;8.05;7.07;;;18.50;99.90;;;;;;5036096;28;20036;-55
2023/09/11 01:27:21;;;;;;;7.97;6.45;;;18.40;99.90;;;;;;5035846;28;20092;-51
2023/09/11 01:29:49;;;;;;;8.23;7.00;;;18.20;99.90;;;;;;5034725;28;20034;-49
2023/09/11 01:32:17;;;;;;;8.57;7.07;;;18.00;99.90;;;;;;5036141;28;20025;-54
2023/09/11 01:34:43;;;;;;;9.57;6.95;;;17.80;99.90;;;;;;5035960;28;20037;-52
2023/09/11 01:37:09;;;;;;;7.75;6.95;;;17.70;99.90;;;;;;5035936;28;20103;-55
2023/09/11 01:39:35;;;;;;;8.38;6.78;;;17.70;99.90;;;;;;5035551;28;20022;-55
2023/09/11 01:42:04;;;;;;;7.85;6.28;;;;;;;;;;5036219;28;20022;-56
2023/09/11 01:44:42;;;;;;;9.32;6.28;;;17.40;99.90;;;;;;5001199;28;20516;-55
2023/09/11 01:47:11;;;;;;;8.27;5.90;;;17.20;99.90;;;;;;5035852;28;20036;-52
2023/09/11 01:49:38;;;;;;;11.32;7.35;;;17.00;99.90;;;;;;5035605;28;20042;-55
2023/09/11 01:52:07;;;;;;;8.70;6.65;;;17.00;99.90;;;;;;5026030;28;20026;-57
2023/09/11 01:54:34;;;;;;;8.10;6.25;;;17.20;99.90;;;;;;5030062;28;20041;-56
2023/09/11 01:57:00;;;;;;;8.02;6.00;;;17.10;99.90;;;;;;5017037;28;20539;-55
2023/09/11 01:59:26;;;;;;;8.40;5.85;;;17.10;99.90;;;;;;5035454;28;20034;-56
2023/09/11 02:01:52;;;;;;;8.25;6.43;;;17.30;99.90;;;;;;5033611;28;20175;-55
2023/09/11 02:04:18;;;;;;;8.75;6.57;;;17.60;99.90;;;;;;5034792;28;20032;-57
2023/09/11 02:06:43;;;;;;;7.60;5.93;;;17.40;99.90;;;;;;5034861;28;20033;-53
2023/09/11 02:09:09;;;;;;;8.98;6.25;;;17.20;99.90;;;;;;5015969;28;20492;-55
2023/09/11 02:11:35;;;;;;;7.75;5.78;;;;;;;;;;5032113;28;20021;-53
2023/09/11 02:14:01;;;;;;;6.60;5.90;;;;;;;;;;5032827;28;20107;-52
2023/09/11 02:16:27;;;;;;;9.82;6.30;;;;;;;;;;5035408;28;20021;-52
2023/09/11 02:18:54;;;;;;;8.60;6.80;;;;;;;;;;5035001;28;20018;-57
2023/09/11 02:21:21;;;;;;;15.18;6.80;;;;;;;;;;5033304;28;20128;-55
2023/09/11 02:23:47;;;;;;;10.93;6.30;;;;;;;;;;5033029;28;20117;-52
2023/09/11 02:26:13;;;;;;;9.05;6.00;;;;;;;;;;5034653;28;20049;-57
2023/09/11 02:28:40;;;;;;;9.95;6.45;;;;;;;;;;5035024;28;20041;-53
2023/09/11 02:31:06;;;;;;;14.38;6.20;;;;;;;;;;5034726;28;20040;-52
2023/09/11 02:33:32;;;;;;;9.20;5.90;;;;;;;;;;5034819;28;20477;-51
2023/09/11 02:35:59;;;;;;;9.50;6.15;;;;;;;;;;5034694;28;20021;-52
2023/09/11 02:38:26;;;;;;;8.38;6.15;;;;;;;;;;5016348;28;20049;-53
2023/09/11 02:40:52;;;;;;;9.10;5.97;;;;;;;;;;5034130;28;20026;-55
2023/09/11 02:43:19;;;;;;;7.93;5.72;;;;;;;;;;5034590;28;20037;-57
2023/09/11 02:45:45;;;;;;;8.60;6.18;;;;;;;;;;5032988;28;20052;-52
2023/09/11 02:48:11;;;;;;;6.75;5.60;;;;;;;;;;5034800;28;20116;-56
2023/09/11 02:50:40;;;;;;;7.40;6.60;;;;;;;;;;5034510;28;20024;-53
2023/09/11 02:53:13;;;;;;;8.15;6.45;;;;;;;;;;5034306;28;20080;-50
2023/09/11 02:55:41;;;;;;;8.95;6.72;;;16.20;99.90;;;;;;5034776;28;20044;-56
2023/09/11 02:58:07;;;;;;;10.70;6.45;;;15.90;99.90;;;;;;5034227;28;20032;-52
2023/09/11 03:00:36;;;;;;;7.93;5.65;;;;;;;;;;5034157;28;20033;-54
2023/09/11 03:03:03;;;;;;;10.13;6.60;;;15.90;99.90;;;;;;5034063;28;20029;-51
2023/09/11 03:05:32;;;;;;;7.85;6.65;;;15.90;99.90;;;;;;5016071;28;20040;-56
2023/09/11 03:08:02;;;;;;;7.80;6.22;;;16.00;99.90;;;;;;5034208;28;20033;-56
2023/09/11 03:10:29;;;;;;;10.55;6.13;;;16.10;99.90;;;;;;4999338;28;20509;-53
2023/09/11 03:12:55;;;;;;;7.63;5.85;;;16.00;99.90;;;;;;5033996;28;20381;-55
2023/09/11 03:15:28;;;;;;;10.25;6.03;;;15.90;99.90;;;;;;5034041;28;20029;-51
2023/09/11 03:17:54;;;;;;;8.13;6.20;;;15.60;99.90;;;;;;5033830;28;20488;-57
2023/09/11 03:20:20;;;;;;;8.35;5.72;;;15.70;99.90;;;;;;5032198;28;20114;-55
2023/09/11 03:22:45;;;;;;;9.13;5.95;;;16.10;99.90;;;;;;5031868;28;20160;-55
2023/09/11 03:25:11;;;;;;;6.53;5.80;;;16.20;99.90;;;;;;5033342;28;20040;-54
2023/09/11 03:27:37;;;;;;;7.22;5.88;;;16.20;99.90;;;;;;5033989;28;20053;-57
2023/09/11 03:30:03;;;;;;;8.73;6.30;;;16.20;99.90;;;;;;5034199;28;20044;-53
2023/09/11 03:32:29;;;;;;;12.50;6.40;;;16.40;99.90;;;;;;4966617;28;20052;-50
2023/09/11 03:34:55;;;;;;;9.00;5.82;;;16.50;99.90;;;;;;5033562;28;20037;-55
2023/09/11 03:37:22;;;;;;;11.13;6.32;;;16.80;99.90;;;;;;5031929;28;20046;-55
2023/09/11 03:39:48;;;;;;;12.70;6.00;;;17.00;99.90;;;;;;5033614;28;20037;-55
2023/09/11 03:42:13;;;;;;;7.72;5.88;;;17.10;99.90;;;;;;5033881;28;20025;-55
2023/09/11 03:44:39;;;;;;;12.80;6.43;;;17.20;99.90;;;;;;5033818;28;20456;-55
2023/09/11 03:47:05;;;;;;;9.07;5.85;;;17.30;99.90;;;;;;5033475;28;20029;-58
2023/09/11 03:49:31;;;;;;;10.52;5.75;;;17.40;99.90;;;;;;5033363;28;20049;-57
2023/09/11 03:51:57;;;;;;;12.98;6.10;;;17.50;99.90;;;;;;5033231;28;20033;-56
2023/09/11 03:54:24;;;;;;;6.88;5.90;;;17.50;99.90;;;;;;5033077;28;20037;-51
2023/09/11 03:56:49;;;;;;;8.45;6.05;;;17.50;99.90;;;;;;5033406;28;20115;-52
2023/09/11 03:59:15;;;;;;;12.40;7.25;;;17.60;99.90;;;;;;5033233;28;20072;-54
2023/09/11 04:01:41;;;;;;;11.85;7.25;;;17.30;99.90;;;;;;5033509;28;20516;-56
2023/09/11 04:04:07;;;;;;;9.10;6.32;;;17.40;99.90;;;;;;5033777;28;20033;-56
2023/09/11 04:06:32;;;;;;;11.15;6.05;;;17.10;99.90;;;;;;5033271;28;20029;-52
2023/09/11 04:08:58;;;;;;;11.05;6.10;;;16.80;99.90;;;;;;5033227;28;20045;-52
2023/09/11 04:11:24;;;;;;;8.68;6.57;;;16.80;99.90;;;;;;5033186;28;20045;-52
2023/09/11 04:13:50;;;;;;;10.60;6.15;;;16.80;99.90;;;;;;5033440;28;20040;-55
2023/09/11 04:16:15;;;;;;;11.52;5.88;;;16.60;99.90;;;;;;5033086;28;20117;-53
2023/09/11 04:18:42;;;;;;;12.70;6.90;;;16.80;99.90;;;;;;5033046;28;20049;-55
2023/09/11 04:21:08;;;;;;;13.88;6.80;;;17.00;99.90;;;;;;5033370;28;20407;-53
2023/09/11 04:23:34;;;;;;;18.40;7.32;;;17.20;99.90;;;;;;5032145;28;20037;-52
2023/09/11 04:26:00;;;;;;;13.38;7.47;;;17.30;99.90;;;;;;5033200;28;20033;-55
2023/09/11 04:28:26;;;;;;;15.55;7.15;;;17.40;99.90;;;;;;5030943;28;20081;-53
2023/09/11 04:30:52;;;;;;;7.95;6.20;;;17.50;99.90;;;;;;5032613;28;20076;-54
2023/09/11 04:33:19;;;;;;;9.70;6.57;;;17.50;99.90;;;;;;5032823;28;20030;-54
2023/09/11 04:35:45;;;;;;;11.35;7.20;;;17.40;99.90;;;;;;5033511;28;20480;-53
2023/09/11 04:38:10;;;;;;;9.18;6.38;;;17.00;99.90;;;;;;5032798;28;20037;-55
2023/09/11 04:40:36;;;;;;;7.15;6.35;;;17.00;99.90;;;;;;5032967;28;20037;-52
2023/09/11 04:43:02;;;;;;;9.70;6.80;;;17.20;99.90;;;;;;5014585;28;20516;-58
2023/09/11 04:45:28;;;;;;;12.00;6.90;;;16.70;99.90;;;;;;5030338;28;20066;-55
2023/09/11 04:47:54;;;;;;;8.80;6.50;;;16.50;99.90;;;;;;5032834;28;20373;-55
2023/09/11 04:50:19;;;;;;;7.63;6.50;;;16.40;99.90;;;;;;5033049;28;20030;-52
2023/09/11 04:52:45;;;;;;;11.93;6.15;;;16.40;99.90;;;;;;5014578;28;20486;-53
2023/09/11 04:55:11;;;;;;;12.10;7.25;;;16.50;99.90;;;;;;5030205;28;20045;-58
2023/09/11 04:57:36;;;;;;;13.80;7.18;;;16.90;99.90;;;;;;5032317;28;20477;-58
2023/09/11 05:00:09;;;;;;;16.92;8.38;;;17.10;99.90;;;;;;5032955;28;20099;-57
2023/09/11 05:02:36;;;;;;;9.55;6.47;;;17.40;99.90;;;;;;5029502;28;20048;-53
2023/09/11 05:05:03;;;;;;;12.30;6.97;;;17.60;99.90;;;;;;5035212;28;20041;-55
2023/09/11 05:07:29;;;;;;;13.13;7.22;;;17.80;99.90;;;;;;5036779;28;20577;-52
2023/09/11 05:09:55;;;;;;;7.88;6.10;;;18.00;99.90;;;;;;5036304;28;20053;-58
2023/09/11 05:12:21;;;;;;;11.93;7.95;;;18.10;99.90;;;;;;5036313;28;20029;-53
2023/09/11 05:14:47;;;;;;;10.80;6.75;;;18.20;99.90;;;;;;5036281;28;20057;-56
2023/09/11 05:17:13;;;;;;;14.75;6.93;;;18.30;99.90;;;;;;5034425;28;20076;-55
2023/09/11 05:19:38;;;;;;;11.88;7.60;;;18.40;99.90;;;;;;5035448;28;20018;-53
2023/09/11 05:22:04;;;;;;;13.25;6.93;;;18.50;99.90;;;;;;5036675;28;20121;-55
2023/09/11 05:24:32;;;;;;;13.55;7.55;;;18.70;99.90;;;;;;5035842;28;20080;-56
2023/09/11 05:26:57;;;;;;;15.55;7.75;;;18.70;99.90;;;;;;5035860;28;20132;-51
2023/09/11 05:29:23;;;;;;;13.32;7.65;;;18.80;99.90;;;;;;5035188;28;20120;-51
2023/09/11 05:31:49;;;;;;;11.82;8.43;;;18.90;99.90;;;;;;5035609;28;20508;-56
2023/09/11 05:34:15;;;;;;;11.52;8.07;;;18.90;99.90;;;;;;5034927;28;20041;-51
2023/09/11 05:36:40;;;;;;;9.18;7.55;;;18.90;99.90;;;;;;5030250;28;20103;-49
2023/09/11 05:39:07;;;;;;;9.43;7.63;;;19.00;99.90;;;;;;5035961;28;20063;-56
2023/09/11 05:41:33;;;;;;;11.52;8.57;;;19.10;99.90;;;;;;5035676;28;20115;-48
2023/09/11 05:43:58;;;;;;;10.65;9.55;;;19.10;99.90;;;;;;5035707;28;20026;-55
2023/09/11 05:46:24;;;;;;;12.20;10.57;;;18.90;99.90;;;;;;5033003;28;20052;-53
2023/09/11 05:48:50;;;;;;;14.65;10.52;;;18.90;99.90;;;;;;5031713;28;20050;-52
2023/09/11 05:51:16;;;;;;;14.15;10.50;;;19.10;99.90;;;;;;5034363;28;20061;-55
2023/09/11 05:53:41;;;;;;;12.20;10.95;;;19.20;99.90;;;;;;5032267;28;20433;-54
2023/09/11 05:56:08;;;;;;;16.38;10.50;;;;;;;;;;5015989;28;20049;-54
2023/09/11 05:58:33;;;;;;;14.05;11.57;;;19.70;99.90;;;;;;5034892;28;20112;-53
2023/09/11 06:00:59;;;;;;;14.32;10.70;;;19.90;99.90;;;;;;5034234;28;20171;-52
2023/09/11 06:03:25;;;;;;;12.63;11.27;;;20.20;99.90;;;;;;5035501;28;20162;-52
2023/09/11 06:05:50;;;;;;;13.63;11.73;;;20.20;99.90;;;;;;5016990;28;20053;-53
2023/09/11 06:08:16;;;;;;;16.92;11.30;;;20.40;99.90;;;;;;5034235;28;20448;-49
2023/09/11 06:10:43;;;;;;;16.38;12.93;;;20.80;99.90;;;;;;5008034;28;20042;-51
2023/09/11 06:13:09;;;;;;;17.38;13.35;;;;;;;;;;5035364;28;20045;-51
2023/09/11 06:15:36;;;;;;;14.75;11.85;;;;;;;;;;5034315;28;20034;-53
2023/09/11 06:18:03;;;;;;;17.23;13.50;;;20.80;99.90;;;;;;5035561;28;20037;-49
2023/09/11 06:20:29;;;;;;;17.75;13.32;;;20.90;99.90;;;;;;5035177;28;20108;-50
2023/09/11 06:22:55;;;;;;;17.65;14.32;;;21.00;99.90;;;;;;5034873;28;20529;-53
2023/09/11 06:25:21;;;;;;;17.75;14.02;;;21.10;99.90;;;;;;5034804;28;20367;-50
2023/09/11 06:27:47;;;;;;;23.50;14.50;;;;;;;;;;5035024;28;20088;-51
2023/09/11 06:30:14;;;;;;;18.55;14.63;;;;;;;;;;5034944;28;20052;-50
2023/09/11 06:32:40;;;;;;;18.77;14.18;;;;;;;;;;5034989;28;20420;-55
2023/09/11 06:35:06;;;;;;;19.45;14.57;;;;;;;;;;5035052;28;20021;-50
2023/09/11 06:37:32;;;;;;;16.52;14.40;;;;;;;;;;4999096;28;20398;-52
2023/09/11 06:39:58;;;;;;;15.45;13.77;;;;;;;;;;5015850;28;20124;-52
2023/09/11 06:42:25;;;;;;;17.52;15.57;;;;;;;;;;5034210;28;20059;-49
2023/09/11 06:44:51;;;;;;;21.02;14.05;;;23.00;99.90;;;;;;5034344;28;20060;-49
2023/09/11 06:47:18;;;;;;;15.98;14.45;;;;;;;;;;5000003;28;20045;-51
2023/09/11 06:49:44;;;;;;;21.60;14.98;;;;;;;;;;5033788;28;20041;-49
2023/09/11 06:52:10;;;;;;;18.02;15.95;;;;;;;;;;5022324;28;20037;-52
2023/09/11 06:54:36;;;;;;;22.17;17.45;;;;;;;;;;5024666;28;20038;-50
2023/09/11 06:57:02;;;;;;;20.30;16.98;;;23.40;99.90;;;;;;5032464;28;20128;-54
2023/09/11 06:59:28;;;;;;;21.10;16.45;;;23.60;99.90;;;;;;5015920;28;20179;-53
2023/09/11 07:01:54;;;;;;;19.27;17.23;;;23.50;99.90;;;;;;5034222;28;20068;-53
2023/09/11 07:04:19;;;;;;;21.38;17.17;;;23.50;99.90;;;;;;5034280;28;20033;-51
2023/09/11 07:06:46;;;;;;;24.58;17.42;;;;;;;;;;5033754;28;20034;-53
2023/09/11 07:09:12;;;;;;;21.75;16.83;;;23.80;99.90;;;;;;5033811;28;20049;-53
2023/09/11 07:11:37;;;;;;;18.20;16.23;;;24.00;99.90;;;;;;5033904;28;20087;-52
2023/09/11 07:14:05;;;;;;;16.98;14.95;;;24.10;99.90;;;;;;5034219;28;20068;-50
2023/09/11 07:16:31;;;;;;;21.30;15.38;;;;;;;;;;5032020;28;20404;-48
2023/09/11 07:18:57;;;;;;;22.40;14.10;;;;;;;;;;5034368;28;20037;-50
2023/09/11 07:21:24;;;;;;;22.10;15.88;;;;;;;;;;5033833;28;20030;-54
2023/09/11 07:23:50;;;;;;;25.08;14.88;;;;;;;;;;5032173;28;20042;-51
2023/09/11 07:26:16;;;;;;;25.02;13.32;;;;;;;;;;5033657;28;20057;-52
2023/09/11 07:29:04;;;;;;;17.58;12.35;;;;;;;;;;5031942;28;20080;-51
2023/09/11 07:31:31;;;;;;;17.83;13.13;;;;;;;;;;5033701;28;20481;-54
2023/09/11 07:33:57;;;;;;;16.83;13.70;;;25.60;99.90;;;;;;5032146;28;20051;-51
2023/09/11 07:36:25;;;;;;;22.25;12.75;;;;;;;;;;5032012;28;20432;-53
2023/09/11 07:38:51;;;;;;;17.70;12.07;;;;;;;;;;5033667;28;20090;-53
2023/09/11 07:41:18;;;;;;;18.15;12.13;;;;;;;;;;5031809;28;20107;-50
2023/09/11 07:43:50;;;;;;;16.30;12.88;;;;;;;;;;5033423;28;20489;-51
2023/09/11 07:46:21;;;;;;;15.85;12.23;;;26.50;98.80;;;;;;5033514;28;20474;-52
2023/09/11 07:48:48;;;;;;;17.17;12.88;;;26.50;98.60;;;;;;5033473;28;20094;-51
2023/09/11 07:51:14;;;;;;;12.38;9.68;;;;;;;;;;5033921;28;20090;-50
2023/09/11 07:53:40;;;;;;;14.93;10.40;;;27.10;98.20;;;;;;5033276;28;20044;-53
2023/09/11 07:56:07;;;;;;;18.88;10.05;;;27.10;98.50;;;;;;5033341;28;20164;-49
2023/09/11 07:58:37;;;;;;;12.77;8.38;;;;;;;;;;5015055;28;20029;-54
2023/09/11 08:01:03;;;;;;;15.30;8.98;;;;;;;;;;5033790;28;20061;-53
2023/09/11 08:03:31;;;;;;;12.50;7.78;;;;;;;;;;5033324;28;20033;-53
2023/09/11 08:05:57;;;;;;;11.30;7.15;;;;;;;;;;5033557;28;20064;-49
2023/09/11 08:08:23;;;;;;;13.02;6.95;;;28.60;96.10;;;;;;4998513;28;20451;-51
2023/09/11 08:10:49;;;;;;;7.28;6.03;;;;;;;;;;5048171;28;20053;-49
2023/09/11 08:13:15;;;;;;;11.80;6.10;;;;;;;;;;5031586;28;20073;-51
2023/09/11 08:15:41;;;;;;;11.32;5.80;;;;;;;;;;5033155;28;20079;-51
2023/09/11 08:18:07;;;;;;;10.02;5.18;;;;;;;;;;5033157;28;20025;-49
2023/09/11 08:20:33;;;;;;;8.35;5.10;;;;;;;;;;5047831;28;20041;-53
2023/09/11 08:22:59;;;;;;;7.90;5.03;;;;;;;;;;5031652;28;20057;-51
2023/09/11 08:25:25;;;;;;;6.40;4.10;;;;;;;;;;5014261;28;20045;-54
2023/09/11 08:27:52;;;;;;;7.70;4.50;;;;;;;;;;5032088;28;20053;-53
2023/09/11 08:30:20;;;;;;;6.13;4.22;;;;;;;;;;5032038;28;20022;-51
2023/09/11 08:32:46;;;;;;;6.50;4.13;;;;;;;;;;5013501;28;20458;-50
2023/09/11 08:35:12;;;;;;;6.82;4.32;;;;;;;;;;5013230;28;20037;-49
2023/09/11 08:37:38;;;;;;;8.65;4.55;;;;;;;;;;5011547;28;20050;-52
2023/09/11 08:40:05;;;;;;;6.18;4.03;;;31.50;99.90;;;;;;4997956;28;20092;-53
2023/09/11 08:42:30;;;;;;;6.18;4.60;;;31.50;92.70;;;;;;4999011;28;20564;-54
2023/09/11 08:44:56;;;;;;;8.30;4.90;;;31.50;92.20;;;;;;5017000;28;20068;-51
2023/09/11 08:47:29;;;;;;;8.38;4.72;;;31.80;92.50;;;;;;5017069;28;20092;-52
2023/09/11 08:49:58;;;;;;;5.90;4.30;;;;;;;;;;5032123;28;20383;-49
2023/09/11 08:52:25;;;;;;;5.05;4.00;;;32.00;95.80;;;;;;5017013;28;20040;-49
2023/09/11 08:54:53;;;;;;;8.05;4.53;;;31.90;91.70;;;;;;4998688;28;20041;-48
2023/09/11 08:57:21;;;;;;;7.65;4.25;;;;;;;;;;5016965;28;20037;-48
2023/09/11 08:59:53;;;;;;;7.95;4.68;;;32.30;99.90;;;;;;5016695;28;20093;-53
2023/09/11 09:02:20;;;;;;;6.90;4.25;;;;;;;;;;5017189;28;20405;-49
2023/09/11 09:04:46;;;;;;;5.57;3.83;;;;;;;;;;5016788;28;20394;-50
2023/09/11 09:07:13;;;;;;;7.32;4.00;;;;;;;;;;5016934;28;20108;-52
2023/09/11 09:09:39;;;;;;;8.25;3.67;;;;;;;;;;5016618;28;20478;-53
2023/09/11 09:12:06;;;;;;;9.15;3.90;;;;;;;;;;5016778;28;20025;-49
2023/09/11 09:14:32;;;;;;;5.40;3.60;;;;;;;;;;5016534;28;20049;-53
2023/09/11 09:16:58;;;;;;;6.05;3.60;;;;;;;;;;5016120;28;20038;-51
2023/09/11 09:19:24;;;;;;;7.63;3.53;;;33.80;99.90;;;;;;5016600;28;20030;-54
2023/09/11 09:22:05;;;;;;;7.15;3.88;;;33.90;90.30;;;;;;5016517;28;20034;-52
2023/09/11 09:24:31;;;;;;;5.70;3.67;;;;;;;;;;5016317;28;20505;-52
2023/09/11 09:26:58;;;;;;;8.50;4.22;;;;;;;;;;5022342;28;20467;-53
2023/09/11 09:29:24;;;;;;;7.20;3.55;;;;;;;;;;5033470;28;20409;-52
2023/09/11 09:31:51;;;;;;;6.93;3.63;;;;;;;;;;5036353;28;20160;-51
2023/09/11 09:34:17;;;;;;;7.32;3.92;;;;;;;;;;5035889;28;20367;-52
2023/09/11 09:36:55;;;;;;;3.90;3.50;;;;;;;;;;5035820;28;20444;-53
2023/09/11 09:39:24;;;;;;;5.70;3.40;;;;;;;;;;5033493;28;20047;-54
2023/09/11 09:41:54;;;;;;;5.47;3.38;;;;;;;;;;5035760;28;20033;-51
2023/09/11 09:44:30;;;;;;;5.95;3.75;;;;;;;;;;5035743;28;20034;-54
2023/09/11 09:46:56;;;;;;;5.35;3.78;;;;;;;;;;5035646;28;20477;-50
2023/09/11 09:49:22;;;;;;;5.15;3.33;;;;;;;;;;5035703;28;20091;-53
2023/09/11 09:51:48;;;;;;;7.20;4.20;;;;;;;;;;5034557;28;20033;-54
2023/09/11 09:54:14;;;;;;;6.78;3.58;;;35.90;99.90;;;;;;5032995;28;20144;-54
2023/09/11 09:56:40;;;;;;;8.77;3.95;;;36.10;89.60;;;;;;5015614;28;20548;-52
2023/09/11 09:59:07;;;;;;;8.23;3.72;;;36.10;89.70;;;;;;5035610;28;20132;-51
2023/09/11 10:01:45;;;;;;;6.45;3.80;;;35.40;88.60;;;;;;5033838;28;20120;-54
2023/09/11 10:04:17;;;;;;;6.00;3.35;;;;;;;;;;5034945;28;20473;-53
2023/09/11 10:06:51;;;;;;;5.22;3.95;;;35.70;88.00;;;;;;5017184;28;20515;-51
2023/09/11 10:09:20;;;;;;;7.57;3.85;;;35.60;87.30;;;;;;5034980;28;20045;-49
2023/09/11 10:11:46;;;;;;;6.80;3.35;;;35.40;87.10;;;;;;5015384;28;20493;-53
2023/09/11 10:14:12;;;;;;;6.82;3.67;;;35.30;86.20;;;;;;5016596;28;20092;-53
2023/09/11 10:16:38;;;;;;;8.50;3.40;;;35.80;86.90;;;;;;5034795;28;20031;-50
2023/09/11 10:19:04;;;;;;;5.13;3.13;;;;;;;;;;5035399;28;20436;-49
2023/09/11 10:21:32;;;;;;;5.03;3.05;;;;;;;;;;5034846;28;20109;-50
2023/09/11 10:23:57;;;;;;;6.53;3.78;;;37.20;98.80;;;;;;5034917;28;20388;-51
2023/09/11 10:26:37;;;;;;;6.07;3.40;;;36.80;86.00;;;;;;5016650;28;20041;-53
2023/09/11 10:29:16;;;;;;;6.85;3.40;;;36.50;86.90;;;;;;5035183;28;20519;-53
2023/09/11 10:31:42;;;;;;;6.05;3.47;;;;;;;;;;5034857;28;20065;-53
2023/09/11 10:34:11;;;;;;;7.95;3.67;;;37.00;83.60;;;;;;5034176;28;20484;-53
2023/09/11 10:36:40;;;;;;;6.38;3.55;;;37.20;84.10;;;;;;5034489;28;20044;-51
2023/09/11 10:39:10;;;;;;;9.75;3.72;;;37.50;84.70;;;;;;4996194;28;20118;-53
2023/09/11 10:41:36;;;;;;;4.90;3.55;;;37.40;83.90;;;;;;4996497;28;20045;-52
2023/09/11 10:44:03;;;;;;;3.80;3.28;;;36.90;84.30;;;;;;5012876;28;20053;-52
2023/09/11 10:46:39;;;;;;;6.68;3.10;;;37.60;84.40;;;;;;5012733;28;20033;-54
2023/09/11 10:49:16;;;;;;;5.88;3.47;;;37.10;85.10;;;;;;5012565;28;20533;-54
2023/09/11 10:51:42;;;;;;;6.43;3.58;;;37.40;85.80;;;;;;5012803;28;20073;-50
2023/09/11 10:54:21;;;;;;;7.07;3.67;;;37.10;84.90;;;;;;5012481;28;20116;-50
2023/09/11 10:56:50;;;;;;;7.75;3.97;;;36.30;84.60;;;;;;5012608;28;20037;-54
2023/09/11 10:59:16;;;;;;;8.57;3.35;;;36.20;86.60;;;;;;5012733;28;20030;-49
2023/09/11 11:01:45;;;;;;;7.57;3.42;;;36.70;86.00;;;;;;5012228;28;20033;-51
2023/09/11 11:04:14;;;;;;;6.65;3.47;;;36.90;83.70;;;;;;5012303;28;20053;-53
2023/09/11 11:06:44;;;;;;;6.07;3.35;;;36.50;82.60;;;;;;5012498;28;20052;-52
2023/09/11 11:09:33;;;;;;;5.68;3.40;;;;;;;;;;5012839;28;20037;-50
2023/09/11 11:12:08;;;;;;;6.18;3.88;;;37.50;83.90;;;;;;4994374;28;20120;-52
2023/09/11 11:14:34;;;;;;;8.85;3.75;;;37.50;84.40;;;;;;5034309;28;20033;-51
2023/09/11 11:17:08;;;;;;;5.30;3.33;;;37.70;84.30;;;;;;5033972;28;20037;-55
2023/09/11 11:19:37;;;;;;;11.55;4.00;;;37.80;83.70;;;;;;5033946;28;20495;-53
2023/09/11 11:22:06;;;;;;;8.52;3.90;;;37.10;83.80;;;;;;5015383;28;20064;-53
2023/09/11 11:24:34;;;;;;;7.45;3.80;;;37.30;85.20;;;;;;5033837;28;20374;-49
2023/09/11 11:27:01;;;;;;;7.20;3.47;;;37.50;86.00;;;;;;5033722;28;20063;-52
2023/09/11 11:29:28;;;;;;;8.13;3.72;;;37.70;83.90;;;;;;5033935;28;20035;-51
2023/09/11 11:31:57;;;;;;;6.22;2.95;;;37.60;80.30;;;;;;5015842;28;20444;-50
2023/09/11 11:34:27;;;;;;;5.43;2.92;;;37.30;80.00;;;;;;5033661;28;20512;-52
2023/09/11 11:36:55;;;;;;;7.13;3.27;;;36.90;79.60;;;;;;5034193;28;20064;-48
2023/09/11 11:39:24;;;;;;;7.72;3.33;;;36.50;79.70;;;;;;5033965;28;20029;-53
2023/09/11 11:41:53;;;;;;;9.23;4.00;;;36.20;78.70;;;;;;5033870;28;20053;-52
2023/09/11 11:44:20;;;;;;;4.63;2.95;;;36.70;79.20;;;;;;5033521;28;20040;-52
2023/09/11 11:46:46;;;;;;;6.13;3.13;;;;;;;;;;5033764;28;20022;-53
2023/09/11 11:49:18;;;;;;;6.47;3.55;;;36.30;87.10;;;;;;5033368;28;20036;-52
2023/09/11 11:51:44;;;;;;;;;;;36.60;99.90;;;;;;5033896;28;20029;-55
2023/09/11 11:54:20;;;;;;;5.32;3.00;;;36.70;78.20;;;;;;5033673;28;20373;-50
2023/09/11 11:56:46;;;;;;;5.78;3.13;;;;;;;;;;5024013;28;20069;-49
2023/09/11 11:59:12;;;;;;;10.60;3.00;;;35.80;78.60;;;;;;5032143;28;20025;-49
2023/09/11 12:01:43;;;;;;;5.50;3.20;;;35.50;81.50;;;;;;5032373;28;20030;-49
2023/09/11 12:04:08;;;;;;;7.43;3.78;;;36.10;79.70;;;;;;5033311;28;20049;-50
2023/09/11 12:06:34;;;;;;;6.60;3.20;;;36.00;79.20;;;;;;5033854;28;20462;-52
2023/09/11 12:09:00;;;;;;;5.28;3.00;;;;;;;;;;5014816;28;20122;-52
2023/09/11 12:11:26;;;;;;;7.82;3.22;;;36.00;96.00;;;;;;5033378;28;20029;-50
2023/09/11 12:13:52;;;;;;;6.13;3.20;;;;;;;;;;5032784;28;20132;-50
2023/09/11 12:16:18;;;;;;;6.68;3.33;;;36.90;78.40;;;;;;4982292;28;20500;-51
2023/09/11 12:18:44;;;;;;;7.35;3.38;;;;;;;;;;5015088;28;20038;-54
2023/09/11 12:21:10;;;;;;;7.63;4.55;;;;;;;;;;5033223;28;20025;-53
2023/09/11 12:23:36;;;;;;;9.68;4.13;;;37.00;78.50;;;;;;5015024;28;20095;-50
2023/09/11 12:26:02;;;;;;;11.30;4.30;;;37.00;78.50;;;;;;5014416;28;20488;-51
2023/09/11 12:28:29;;;;;;;7.05;4.13;;;36.60;78.40;;;;;;5033053;28;20044;-50
2023/09/11 12:30:55;;;;;;;13.27;4.53;;;36.80;78.30;;;;;;5033659;28;20029;-49
2023/09/11 12:33:22;;;;;;;9.32;3.30;;;;;;;;;;5033229;28;20432;-54
2023/09/11 12:35:51;;;;;;;5.32;2.70;;;37.70;77.90;;;;;;5014685;28;20030;-50
2023/09/11 12:38:17;;;;;;;5.30;3.05;;;37.30;77.30;;;;;;5033216;28;20037;-52
2023/09/11 12:40:43;;;;;;;4.15;3.05;;;37.10;78.00;;;;;;5032871;28;20033;-51
2023/09/11 12:43:10;;;;;;;5.47;3.28;;;36.80;78.30;;;;;;5010642;28;20045;-51
2023/09/11 12:45:36;;;;;;;6.28;3.17;;;37.00;78.40;;;;;;4995149;28;20037;-52
2023/09/11 12:48:03;;;;;;;6.28;2.90;;;36.70;77.80;;;;;;5013300;28;20104;-50
2023/09/11 12:50:30;;;;;;;8.15;3.17;;;36.80;77.90;;;;;;5030630;28;20069;-53
2023/09/11 12:53:01;;;;;;;5.07;3.00;;;36.50;77.90;;;;;;5030975;28;20127;-51
2023/09/11 12:55:27;;;;;;;6.10;2.90;;;36.90;78.10;;;;;;5030682;28;20068;-50
2023/09/11 12:58:00;;;;;;;5.55;3.08;;;36.90;78.10;;;;;;5030771;28;20029;-51
2023/09/11 13:00:30;;;;;;;5.90;3.13;;;36.30;78.10;;;;;;5030712;28;20077;-50
2023/09/11 13:02:57;;;;;;;5.22;3.05;;;37.10;79.00;;;;;;5030805;28;20456;-52
2023/09/11 13:05:23;;;;;;;4.30;2.80;;;36.80;78.10;;;;;;5030593;28;20030;-49
2023/09/11 13:07:50;;;;;;;5.22;3.25;;;36.60;81.50;;;;;;5030669;28;20502;-54
2023/09/11 13:10:16;;;;;;;7.85;3.15;;;36.80;78.90;;;;;;5030342;28;20037;-51
2023/09/11 13:12:43;;;;;;;3.78;2.50;;;36.80;79.10;;;;;;5030724;28;20037;-52
2023/09/11 13:15:09;;;;;;;7.22;3.10;;;36.40;79.60;;;;;;5030475;28;20071;-51